sensor_id;sensor_type;location;lat;lon;timestamp;temperature;humidity
3850;DHT22;1940;51.052;13.678;2022-10-16T00:01:15;14.40;94.50
3850;DHT22;1940;51.052;13.678;2022-10-16T00:03:43;14.40;94.40
3850;DHT22;1940;51.052;13.678;2022-10-16T00:06:10;14.40;94.80
3850;DHT22;1940;51.052;13.678;2022-10-16T00:08:36;14.50;95.00
3850;DHT22;1940;51.052;13.678;2022-10-16T00:11:11;14.60;94.80
3850;DHT22;1940;51.052;13.678;2022-10-16T00:13:39;14.60;94.60
3850;DHT22;1940;51.052;13.678;2022-10-16T00:16:05;14.60;94.40
3850;DHT22;1940;51.052;13.678;2022-10-16T00:18:31;14.60;94.30
3850;DHT22;1940;51.052;13.678;2022-10-16T00:21:03;14.50;94.30
3850;DHT22;1940;51.052;13.678;2022-10-16T00:23:29;14.60;94.20
3850;DHT22;1940;51.052;13.678;2022-10-16T00:25:56;14.50;94.30
3850;DHT22;1940;51.052;13.678;2022-10-16T00:28:22;14.40;94.30
3850;DHT22;1940;51.052;13.678;2022-10-16T00:30:47;14.50;94.50
3850;DHT22;1940;51.052;13.678;2022-10-16T00:33:13;14.40;94.80
3850;DHT22;1940;51.052;13.678;2022-10-16T00:35:38;14.50;94.90
3850;DHT22;1940;51.052;13.678;2022-10-16T00:38:04;14.50;94.90
3850;DHT22;1940;51.052;13.678;2022-10-16T00:40:29;14.50;94.90
3850;DHT22;1940;51.052;13.678;2022-10-16T00:42:56;14.50;94.90
3850;DHT22;1940;51.052;13.678;2022-10-16T00:45:21;14.50;94.80
3850;DHT22;1940;51.052;13.678;2022-10-16T00:47:48;14.40;94.90
3850;DHT22;1940;51.052;13.678;2022-10-16T00:50:27;14.50;95.10
3850;DHT22;1940;51.052;13.678;2022-10-16T00:52:54;14.50;95.10
3850;DHT22;1940;51.052;13.678;2022-10-16T00:55:20;14.60;95.10
3850;DHT22;1940;51.052;13.678;2022-10-16T00:57:46;14.60;94.80
3850;DHT22;1940;51.052;13.678;2022-10-16T01:00:16;14.50;94.70
3850;DHT22;1940;51.052;13.678;2022-10-16T01:02:42;14.50;94.60
3850;DHT22;1940;51.052;13.678;2022-10-16T01:05:08;14.50;94.80
3850;DHT22;1940;51.052;13.678;2022-10-16T01:08:04;14.50;94.80
3850;DHT22;1940;51.052;13.678;2022-10-16T01:13:15;14.40;94.80
3850;DHT22;1940;51.052;13.678;2022-10-16T01:16:07;14.50;94.80
3850;DHT22;1940;51.052;13.678;2022-10-16T01:18:44;14.50;94.80
3850;DHT22;1940;51.052;13.678;2022-10-16T01:21:17;14.50;94.80
3850;DHT22;1940;51.052;13.678;2022-10-16T01:24:04;14.40;94.70
3850;DHT22;1940;51.052;13.678;2022-10-16T01:29:16;14.30;94.70
3850;DHT22;1940;51.052;13.678;2022-10-16T01:31:48;14.30;95.00
3850;DHT22;1940;51.052;13.678;2022-10-16T01:34:20;14.30;95.10
3850;DHT22;1940;51.052;13.678;2022-10-16T01:36:57;14.40;95.20
3850;DHT22;1940;51.052;13.678;2022-10-16T01:39:31;14.50;95.20
3850;DHT22;1940;51.052;13.678;2022-10-16T01:42:06;14.50;95.10
3850;DHT22;1940;51.052;13.678;2022-10-16T01:44:34;14.50;95.10
3850;DHT22;1940;51.052;13.678;2022-10-16T01:47:02;14.50;95.00
3850;DHT22;1940;51.052;13.678;2022-10-16T01:49:33;14.60;95.10
3850;DHT22;1940;51.052;13.678;2022-10-16T01:52:02;14.60;95.10
3850;DHT22;1940;51.052;13.678;2022-10-16T01:54:31;14.70;94.70
3850;DHT22;1940;51.052;13.678;2022-10-16T01:56:58;14.70;94.60
3850;DHT22;1940;51.052;13.678;2022-10-16T01:59:26;14.70;94.70
3850;DHT22;1940;51.052;13.678;2022-10-16T02:01:56;14.70;94.40
3850;DHT22;1940;51.052;13.678;2022-10-16T02:04:34;14.70;94.50
3850;DHT22;1940;51.052;13.678;2022-10-16T02:07:01;14.70;94.30
3850;DHT22;1940;51.052;13.678;2022-10-16T02:09:27;14.70;94.20
3850;DHT22;1940;51.052;13.678;2022-10-16T02:11:55;14.70;94.40
3850;DHT22;1940;51.052;13.678;2022-10-16T02:14:21;14.70;94.40
3850;DHT22;1940;51.052;13.678;2022-10-16T02:16:49;14.80;94.40
3850;DHT22;1940;51.052;13.678;2022-10-16T02:19:17;14.80;94.40
3850;DHT22;1940;51.052;13.678;2022-10-16T02:21:54;14.90;94.10
3850;DHT22;1940;51.052;13.678;2022-10-16T02:26:57;14.90;94.00
3850;DHT22;1940;51.052;13.678;2022-10-16T02:29:27;14.90;94.30
3850;DHT22;1940;51.052;13.678;2022-10-16T02:31:57;14.90;94.30
3850;DHT22;1940;51.052;13.678;2022-10-16T02:34:25;14.90;94.30
3850;DHT22;1940;51.052;13.678;2022-10-16T02:36:51;15.00;94.00
3850;DHT22;1940;51.052;13.678;2022-10-16T02:39:18;15.00;94.00
3850;DHT22;1940;51.052;13.678;2022-10-16T02:41:45;15.10;93.70
3850;DHT22;1940;51.052;13.678;2022-10-16T02:44:10;15.10;93.70
3850;DHT22;1940;51.052;13.678;2022-10-16T02:46:36;15.10;93.70
3850;DHT22;1940;51.052;13.678;2022-10-16T02:49:01;15.10;93.60
3850;DHT22;1940;51.052;13.678;2022-10-16T02:51:27;15.20;93.60
3850;DHT22;1940;51.052;13.678;2022-10-16T02:53:52;15.20;93.40
3850;DHT22;1940;51.052;13.678;2022-10-16T02:56:18;15.20;93.40
3850;DHT22;1940;51.052;13.678;2022-10-16T02:58:44;15.30;93.30
3850;DHT22;1940;51.052;13.678;2022-10-16T03:01:09;15.30;93.20
3850;DHT22;1940;51.052;13.678;2022-10-16T03:03:35;15.30;93.20
3850;DHT22;1940;51.052;13.678;2022-10-16T03:06:01;15.40;93.00
3850;DHT22;1940;51.052;13.678;2022-10-16T03:08:28;15.30;92.90
3850;DHT22;1940;51.052;13.678;2022-10-16T03:10:54;15.30;92.80
3850;DHT22;1940;51.052;13.678;2022-10-16T03:13:19;15.30;92.80
3850;DHT22;1940;51.052;13.678;2022-10-16T03:15:45;15.30;92.70
3850;DHT22;1940;51.052;13.678;2022-10-16T03:18:11;15.20;92.70
3850;DHT22;1940;51.052;13.678;2022-10-16T03:20:37;15.20;92.70
3850;DHT22;1940;51.052;13.678;2022-10-16T03:23:02;15.20;92.80
3850;DHT22;1940;51.052;13.678;2022-10-16T03:25:28;15.20;92.90
3850;DHT22;1940;51.052;13.678;2022-10-16T03:27:53;15.20;93.00
3850;DHT22;1940;51.052;13.678;2022-10-16T03:30:19;15.10;93.00
3850;DHT22;1940;51.052;13.678;2022-10-16T03:32:45;15.10;93.10
3850;DHT22;1940;51.052;13.678;2022-10-16T03:35:10;15.10;93.00
3850;DHT22;1940;51.052;13.678;2022-10-16T03:37:36;15.20;93.00
3850;DHT22;1940;51.052;13.678;2022-10-16T03:40:02;15.10;92.80
3850;DHT22;1940;51.052;13.678;2022-10-16T03:42:28;15.10;93.10
3850;DHT22;1940;51.052;13.678;2022-10-16T03:44:54;15.00;93.30
3850;DHT22;1940;51.052;13.678;2022-10-16T03:47:19;15.00;93.20
3850;DHT22;1940;51.052;13.678;2022-10-16T03:49:47;14.90;93.60
3850;DHT22;1940;51.052;13.678;2022-10-16T03:52:13;14.80;94.00
3850;DHT22;1940;51.052;13.678;2022-10-16T03:54:38;14.70;94.30
3850;DHT22;1940;51.052;13.678;2022-10-16T03:57:04;14.70;94.60
3850;DHT22;1940;51.052;13.678;2022-10-16T03:59:30;14.60;94.70
3850;DHT22;1940;51.052;13.678;2022-10-16T04:01:55;14.60;94.90
3850;DHT22;1940;51.052;13.678;2022-10-16T04:04:21;14.60;95.10
3850;DHT22;1940;51.052;13.678;2022-10-16T04:06:46;14.60;95.20
3850;DHT22;1940;51.052;13.678;2022-10-16T04:09:12;14.60;95.20
3850;DHT22;1940;51.052;13.678;2022-10-16T04:11:37;14.60;95.20
3850;DHT22;1940;51.052;13.678;2022-10-16T04:14:04;14.70;95.20
3850;DHT22;1940;51.052;13.678;2022-10-16T04:16:29;14.70;95.10
3850;DHT22;1940;51.052;13.678;2022-10-16T04:18:55;14.70;95.00
3850;DHT22;1940;51.052;13.678;2022-10-16T04:21:20;14.70;95.00
3850;DHT22;1940;51.052;13.678;2022-10-16T04:23:46;14.70;95.00
3850;DHT22;1940;51.052;13.678;2022-10-16T04:26:11;14.70;95.00
3850;DHT22;1940;51.052;13.678;2022-10-16T04:28:37;14.70;95.10
3850;DHT22;1940;51.052;13.678;2022-10-16T04:31:06;14.70;95.10
3850;DHT22;1940;51.052;13.678;2022-10-16T04:33:33;14.70;95.20
3850;DHT22;1940;51.052;13.678;2022-10-16T04:36:03;14.70;95.20
3850;DHT22;1940;51.052;13.678;2022-10-16T04:38:29;14.70;95.20
3850;DHT22;1940;51.052;13.678;2022-10-16T04:40:55;14.80;95.20
3850;DHT22;1940;51.052;13.678;2022-10-16T04:43:21;14.80;95.10
3850;DHT22;1940;51.052;13.678;2022-10-16T04:45:47;14.80;95.00
3850;DHT22;1940;51.052;13.678;2022-10-16T04:48:13;14.70;95.20
3850;DHT22;1940;51.052;13.678;2022-10-16T04:50:38;14.70;95.10
3850;DHT22;1940;51.052;13.678;2022-10-16T04:53:04;14.70;95.00
3850;DHT22;1940;51.052;13.678;2022-10-16T04:55:30;14.80;94.90
3850;DHT22;1940;51.052;13.678;2022-10-16T04:57:55;14.80;94.80
3850;DHT22;1940;51.052;13.678;2022-10-16T05:00:21;14.80;94.70
3850;DHT22;1940;51.052;13.678;2022-10-16T05:02:49;14.70;95.00
3850;DHT22;1940;51.052;13.678;2022-10-16T05:05:14;14.70;95.00
3850;DHT22;1940;51.052;13.678;2022-10-16T05:07:40;14.80;95.10
3850;DHT22;1940;51.052;13.678;2022-10-16T05:10:06;14.80;95.10
3850;DHT22;1940;51.052;13.678;2022-10-16T05:12:32;14.70;95.10
3850;DHT22;1940;51.052;13.678;2022-10-16T05:14:57;14.70;95.20
3850;DHT22;1940;51.052;13.678;2022-10-16T05:17:24;14.80;95.20
3850;DHT22;1940;51.052;13.678;2022-10-16T05:19:50;14.80;95.20
3850;DHT22;1940;51.052;13.678;2022-10-16T05:22:16;14.90;95.00
3850;DHT22;1940;51.052;13.678;2022-10-16T05:24:41;14.90;94.80
3850;DHT22;1940;51.052;13.678;2022-10-16T05:27:07;14.90;94.80
3850;DHT22;1940;51.052;13.678;2022-10-16T05:29:32;14.90;94.60
3850;DHT22;1940;51.052;13.678;2022-10-16T05:31:58;14.90;94.60
3850;DHT22;1940;51.052;13.678;2022-10-16T05:34:24;14.80;94.50
3850;DHT22;1940;51.052;13.678;2022-10-16T05:36:49;14.80;94.60
3850;DHT22;1940;51.052;13.678;2022-10-16T05:39:16;14.80;94.70
3850;DHT22;1940;51.052;13.678;2022-10-16T05:41:42;14.80;94.70
3850;DHT22;1940;51.052;13.678;2022-10-16T05:44:09;14.80;94.80
3850;DHT22;1940;51.052;13.678;2022-10-16T05:46:34;14.90;94.90
3850;DHT22;1940;51.052;13.678;2022-10-16T05:49:00;14.90;95.00
3850;DHT22;1940;51.052;13.678;2022-10-16T05:51:25;14.90;94.90
3850;DHT22;1940;51.052;13.678;2022-10-16T05:53:52;15.00;94.50
3850;DHT22;1940;51.052;13.678;2022-10-16T05:56:18;15.00;94.50
3850;DHT22;1940;51.052;13.678;2022-10-16T05:58:44;15.00;94.40
3850;DHT22;1940;51.052;13.678;2022-10-16T06:01:16;15.00;94.90
3850;DHT22;1940;51.052;13.678;2022-10-16T06:03:42;15.10;94.70
3850;DHT22;1940;51.052;13.678;2022-10-16T06:06:13;15.10;94.50
3850;DHT22;1940;51.052;13.678;2022-10-16T06:08:40;15.20;94.40
3850;DHT22;1940;51.052;13.678;2022-10-16T06:11:11;15.20;94.30
3850;DHT22;1940;51.052;13.678;2022-10-16T06:13:38;15.30;94.20
3850;DHT22;1940;51.052;13.678;2022-10-16T06:16:09;15.30;94.20
3850;DHT22;1940;51.052;13.678;2022-10-16T06:18:35;15.40;94.20
3850;DHT22;1940;51.052;13.678;2022-10-16T06:21:07;15.50;94.20
3850;DHT22;1940;51.052;13.678;2022-10-16T06:23:33;15.60;93.70
3850;DHT22;1940;51.052;13.678;2022-10-16T06:26:26;15.70;93.40
3850;DHT22;1940;51.052;13.678;2022-10-16T06:28:54;15.80;93.10
3850;DHT22;1940;51.052;13.678;2022-10-16T06:31:20;15.90;92.80
3850;DHT22;1940;51.052;13.678;2022-10-16T06:33:50;16.00;92.60
3850;DHT22;1940;51.052;13.678;2022-10-16T06:36:16;16.10;92.00
3850;DHT22;1940;51.052;13.678;2022-10-16T06:38:43;16.20;91.40
3850;DHT22;1940;51.052;13.678;2022-10-16T06:41:14;16.20;91.40
3850;DHT22;1940;51.052;13.678;2022-10-16T06:43:40;16.30;91.20
3850;DHT22;1940;51.052;13.678;2022-10-16T06:46:07;16.40;90.70
3850;DHT22;1940;51.052;13.678;2022-10-16T06:48:34;16.60;90.40
3850;DHT22;1940;51.052;13.678;2022-10-16T06:51:01;16.70;90.00
3850;DHT22;1940;51.052;13.678;2022-10-16T06:53:30;16.80;89.70
3850;DHT22;1940;51.052;13.678;2022-10-16T06:55:56;16.90;89.10
3850;DHT22;1940;51.052;13.678;2022-10-16T06:58:22;16.90;89.00
3850;DHT22;1940;51.052;13.678;2022-10-16T07:00:48;16.90;88.80
3850;DHT22;1940;51.052;13.678;2022-10-16T07:03:14;17.00;88.80
3850;DHT22;1940;51.052;13.678;2022-10-16T07:05:41;16.90;88.50
3850;DHT22;1940;51.052;13.678;2022-10-16T07:08:06;17.00;88.60
3850;DHT22;1940;51.052;13.678;2022-10-16T07:10:33;17.00;88.50
3850;DHT22;1940;51.052;13.678;2022-10-16T07:12:58;16.90;88.60
3850;DHT22;1940;51.052;13.678;2022-10-16T07:15:25;16.90;88.80
3850;DHT22;1940;51.052;13.678;2022-10-16T07:17:51;16.70;89.10
3850;DHT22;1940;51.052;13.678;2022-10-16T07:20:16;16.80;89.20
3850;DHT22;1940;51.052;13.678;2022-10-16T07:22:42;16.90;89.30
3850;DHT22;1940;51.052;13.678;2022-10-16T07:25:08;17.00;89.20
3850;DHT22;1940;51.052;13.678;2022-10-16T07:27:34;17.10;89.00
3850;DHT22;1940;51.052;13.678;2022-10-16T07:29:59;17.10;88.80
3850;DHT22;1940;51.052;13.678;2022-10-16T07:32:25;17.10;88.70
3850;DHT22;1940;51.052;13.678;2022-10-16T07:34:51;17.20;88.60
3850;DHT22;1940;51.052;13.678;2022-10-16T07:37:17;17.20;88.60
3850;DHT22;1940;51.052;13.678;2022-10-16T07:39:42;17.20;88.50
3850;DHT22;1940;51.052;13.678;2022-10-16T07:42:08;17.20;88.60
3850;DHT22;1940;51.052;13.678;2022-10-16T07:44:33;17.20;88.80
3850;DHT22;1940;51.052;13.678;2022-10-16T07:46:59;17.20;88.90
3850;DHT22;1940;51.052;13.678;2022-10-16T07:49:24;17.20;88.80
3850;DHT22;1940;51.052;13.678;2022-10-16T07:51:50;17.10;89.20
3850;DHT22;1940;51.052;13.678;2022-10-16T07:54:15;17.20;89.20
3850;DHT22;1940;51.052;13.678;2022-10-16T07:56:41;17.30;89.20
3850;DHT22;1940;51.052;13.678;2022-10-16T07:59:07;17.40;89.00
3850;DHT22;1940;51.052;13.678;2022-10-16T08:01:32;17.60;88.50
3850;DHT22;1940;51.052;13.678;2022-10-16T08:03:58;17.80;88.00
3850;DHT22;1940;51.052;13.678;2022-10-16T08:06:23;17.90;87.50
3850;DHT22;1940;51.052;13.678;2022-10-16T08:08:49;18.10;87.20
3850;DHT22;1940;51.052;13.678;2022-10-16T08:11:15;18.10;86.90
3850;DHT22;1940;51.052;13.678;2022-10-16T08:13:41;18.40;86.30
3850;DHT22;1940;51.052;13.678;2022-10-16T08:16:07;18.50;85.60
3850;DHT22;1940;51.052;13.678;2022-10-16T08:18:38;18.50;85.50
3850;DHT22;1940;51.052;13.678;2022-10-16T08:21:05;18.70;85.60
3850;DHT22;1940;51.052;13.678;2022-10-16T08:23:31;18.80;85.00
3850;DHT22;1940;51.052;13.678;2022-10-16T08:26:03;18.80;84.20
3850;DHT22;1940;51.052;13.678;2022-10-16T08:28:29;18.90;84.40
3850;DHT22;1940;51.052;13.678;2022-10-16T08:30:54;19.10;84.30
3850;DHT22;1940;51.052;13.678;2022-10-16T08:33:22;19.30;83.80
3850;DHT22;1940;51.052;13.678;2022-10-16T08:35:51;19.50;83.20
3850;DHT22;1940;51.052;13.678;2022-10-16T08:38:18;19.60;82.80
3850;DHT22;1940;51.052;13.678;2022-10-16T08:40:44;19.70;82.60
3850;DHT22;1940;51.052;13.678;2022-10-16T08:48:58;20.10;81.30
3850;DHT22;1940;51.052;13.678;2022-10-16T08:51:30;20.20;80.80
3850;DHT22;1940;51.052;13.678;2022-10-16T08:53:59;20.70;80.60
3850;DHT22;1940;51.052;13.678;2022-10-16T08:56:26;21.70;78.40
3850;DHT22;1940;51.052;13.678;2022-10-16T08:58:53;23.30;73.20
3850;DHT22;1940;51.052;13.678;2022-10-16T09:01:21;24.90;69.70
3850;DHT22;1940;51.052;13.678;2022-10-16T09:06:47;27.70;62.10
3850;DHT22;1940;51.052;13.678;2022-10-16T09:22:46;34.00;50.70
3850;DHT22;1940;51.052;13.678;2022-10-16T09:25:17;34.80;49.50
3850;DHT22;1940;51.052;13.678;2022-10-16T09:27:47;35.50;48.40
3850;DHT22;1940;51.052;13.678;2022-10-16T09:30:17;35.30;48.40
3850;DHT22;1940;51.052;13.678;2022-10-16T09:32:46;34.40;49.30
3850;DHT22;1940;51.052;13.678;2022-10-16T09:35:19;33.80;49.60
3850;DHT22;1940;51.052;13.678;2022-10-16T09:37:48;31.80;53.00
3850;DHT22;1940;51.052;13.678;2022-10-16T09:40:33;30.90;54.10
3850;DHT22;1940;51.052;13.678;2022-10-16T09:45:43;27.50;59.70
3850;DHT22;1940;51.052;13.678;2022-10-16T09:48:19;26.60;62.30
3850;DHT22;1940;51.052;13.678;2022-10-16T09:50:55;26.00;63.60
3850;DHT22;1940;51.052;13.678;2022-10-16T09:53:21;25.60;64.70
3850;DHT22;1940;51.052;13.678;2022-10-16T09:55:52;25.50;64.70
3850;DHT22;1940;51.052;13.678;2022-10-16T09:58:21;25.80;65.20
3850;DHT22;1940;51.052;13.678;2022-10-16T10:00:54;26.30;64.40
3850;DHT22;1940;51.052;13.678;2022-10-16T10:03:34;27.30;62.20
3850;DHT22;1940;51.052;13.678;2022-10-16T10:06:14;27.90;60.10
3850;DHT22;1940;51.052;13.678;2022-10-16T10:08:51;28.00;60.00
3850;DHT22;1940;51.052;13.678;2022-10-16T10:11:17;27.90;60.60
3850;DHT22;1940;51.052;13.678;2022-10-16T10:13:42;27.10;61.40
3850;DHT22;1940;51.052;13.678;2022-10-16T10:16:08;26.40;62.80
3850;DHT22;1940;51.052;13.678;2022-10-16T10:18:34;26.30;63.60
3850;DHT22;1940;51.052;13.678;2022-10-16T10:21:01;26.60;63.10
3850;DHT22;1940;51.052;13.678;2022-10-16T10:23:29;26.80;62.90
3850;DHT22;1940;51.052;13.678;2022-10-16T10:26:18;27.20;62.10
3850;DHT22;1940;51.052;13.678;2022-10-16T10:31:51;29.00;58.60
3850;DHT22;1940;51.052;13.678;2022-10-16T10:34:44;29.20;57.90
3850;DHT22;1940;51.052;13.678;2022-10-16T10:45:46;27.10;61.10
3850;DHT22;1940;51.052;13.678;2022-10-16T10:48:17;26.70;62.50
3850;DHT22;1940;51.052;13.678;2022-10-16T11:07:28;31.10;54.60
3850;DHT22;1940;51.052;13.678;2022-10-16T11:10:02;30.60;54.90
3850;DHT22;1940;51.052;13.678;2022-10-16T11:12:36;29.90;55.50
3850;DHT22;1940;51.052;13.678;2022-10-16T11:21:07;27.30;60.40
3850;DHT22;1940;51.052;13.678;2022-10-16T11:23:44;26.70;61.10
3850;DHT22;1940;51.052;13.678;2022-10-16T11:26:20;26.90;61.70
3850;DHT22;1940;51.052;13.678;2022-10-16T11:28:50;26.80;61.10
3850;DHT22;1940;51.052;13.678;2022-10-16T11:36:33;25.50;64.70
3850;DHT22;1940;51.052;13.678;2022-10-16T11:41:51;25.10;65.50
3850;DHT22;1940;51.052;13.678;2022-10-16T11:55:43;24.40;66.80
3850;DHT22;1940;51.052;13.678;2022-10-16T12:01:22;24.80;65.80
3850;DHT22;1940;51.052;13.678;2022-10-16T12:09:26;25.00;66.90
3850;DHT22;1940;51.052;13.678;2022-10-16T12:11:53;25.10;65.30
3850;DHT22;1940;51.052;13.678;2022-10-16T12:17:04;24.50;65.40
3850;DHT22;1940;51.052;13.678;2022-10-16T12:20:12;24.30;66.50
3850;DHT22;1940;51.052;13.678;2022-10-16T12:23:03;24.10;67.10
3850;DHT22;1940;51.052;13.678;2022-10-16T12:25:37;24.00;67.40
3850;DHT22;1940;51.052;13.678;2022-10-16T12:30:41;23.80;67.50
3850;DHT22;1940;51.052;13.678;2022-10-16T12:33:24;23.80;67.90
3850;DHT22;1940;51.052;13.678;2022-10-16T12:35:51;23.90;68.00
3850;DHT22;1940;51.052;13.678;2022-10-16T12:38:20;24.00;67.90
3850;DHT22;1940;51.052;13.678;2022-10-16T12:41:02;24.10;67.60
3850;DHT22;1940;51.052;13.678;2022-10-16T12:46:23;24.30;67.20
3850;DHT22;1940;51.052;13.678;2022-10-16T12:48:49;24.40;67.00
3850;DHT22;1940;51.052;13.678;2022-10-16T12:54:21;24.20;67.50
3850;DHT22;1940;51.052;13.678;2022-10-16T13:08:32;25.10;66.80
3850;DHT22;1940;51.052;13.678;2022-10-16T13:16:52;24.70;65.80
3850;DHT22;1940;51.052;13.678;2022-10-16T13:19:28;24.40;66.50
3850;DHT22;1940;51.052;13.678;2022-10-16T13:24:46;24.40;67.00
3850;DHT22;1940;51.052;13.678;2022-10-16T13:29:42;24.10;67.60
3850;DHT22;1940;51.052;13.678;2022-10-16T13:32:10;23.80;68.00
3850;DHT22;1940;51.052;13.678;2022-10-16T13:34:48;23.70;68.80
3850;DHT22;1940;51.052;13.678;2022-10-16T13:37:22;23.80;68.80
3850;DHT22;1940;51.052;13.678;2022-10-16T13:39:48;23.40;71.60
3850;DHT22;1940;51.052;13.678;2022-10-16T13:42:26;23.00;74.50
3850;DHT22;1940;51.052;13.678;2022-10-16T13:44:54;22.70;76.10
3850;DHT22;1940;51.052;13.678;2022-10-16T13:47:28;22.60;77.30
3850;DHT22;1940;51.052;13.678;2022-10-16T13:50:05;22.60;77.30
3850;DHT22;1940;51.052;13.678;2022-10-16T13:52:32;22.60;77.70
3850;DHT22;1940;51.052;13.678;2022-10-16T13:54:57;22.60;78.20
3850;DHT22;1940;51.052;13.678;2022-10-16T13:57:24;22.60;78.20
3850;DHT22;1940;51.052;13.678;2022-10-16T13:59:50;22.70;77.70
3850;DHT22;1940;51.052;13.678;2022-10-16T14:02:29;22.90;77.60
3850;DHT22;1940;51.052;13.678;2022-10-16T14:04:57;22.90;77.80
3850;DHT22;1940;51.052;13.678;2022-10-16T14:07:32;23.00;77.70
3850;DHT22;1940;51.052;13.678;2022-10-16T14:10:06;23.00;77.50
3850;DHT22;1940;51.052;13.678;2022-10-16T14:12:32;23.00;77.80
3850;DHT22;1940;51.052;13.678;2022-10-16T14:14:59;23.00;77.40
3850;DHT22;1940;51.052;13.678;2022-10-16T14:17:33;23.00;77.60
3850;DHT22;1940;51.052;13.678;2022-10-16T14:20:02;23.00;77.60
3850;DHT22;1940;51.052;13.678;2022-10-16T14:22:34;23.10;78.10
3850;DHT22;1940;51.052;13.678;2022-10-16T14:25:01;23.10;78.00
3850;DHT22;1940;51.052;13.678;2022-10-16T14:27:33;23.00;77.90
3850;DHT22;1940;51.052;13.678;2022-10-16T14:30:22;23.00;77.60
3850;DHT22;1940;51.052;13.678;2022-10-16T14:33:20;23.00;77.50
3850;DHT22;1940;51.052;13.678;2022-10-16T14:35:46;23.00;77.50
3850;DHT22;1940;51.052;13.678;2022-10-16T14:38:19;23.00;77.50
3850;DHT22;1940;51.052;13.678;2022-10-16T14:40:48;23.00;76.90
3850;DHT22;1940;51.052;13.678;2022-10-16T14:43:24;22.90;77.00
3850;DHT22;1940;51.052;13.678;2022-10-16T14:45:54;22.90;76.70
3850;DHT22;1940;51.052;13.678;2022-10-16T14:48:21;22.90;76.70
3850;DHT22;1940;51.052;13.678;2022-10-16T14:50:47;22.90;77.20
3850;DHT22;1940;51.052;13.678;2022-10-16T14:53:13;22.80;77.50
3850;DHT22;1940;51.052;13.678;2022-10-16T14:55:40;22.90;77.20
3850;DHT22;1940;51.052;13.678;2022-10-16T14:58:09;22.80;77.00
3850;DHT22;1940;51.052;13.678;2022-10-16T15:00:42;22.90;76.90
3850;DHT22;1940;51.052;13.678;2022-10-16T15:03:07;22.90;77.10
3850;DHT22;1940;51.052;13.678;2022-10-16T15:05:33;22.90;77.20
3850;DHT22;1940;51.052;13.678;2022-10-16T15:07:58;22.90;77.10
3850;DHT22;1940;51.052;13.678;2022-10-16T15:10:26;22.90;76.90
3850;DHT22;1940;51.052;13.678;2022-10-16T15:12:53;22.90;76.90
3850;DHT22;1940;51.052;13.678;2022-10-16T15:15:28;22.80;77.00
3850;DHT22;1940;51.052;13.678;2022-10-16T15:17:56;22.70;77.10
3850;DHT22;1940;51.052;13.678;2022-10-16T15:20:26;22.60;77.30
3850;DHT22;1940;51.052;13.678;2022-10-16T15:22:52;22.60;77.40
3850;DHT22;1940;51.052;13.678;2022-10-16T15:28:08;22.50;77.00
3850;DHT22;1940;51.052;13.678;2022-10-16T15:30:36;22.40;77.10
3850;DHT22;1940;51.052;13.678;2022-10-16T15:33:03;22.40;77.60
3850;DHT22;1940;51.052;13.678;2022-10-16T15:35:30;22.40;77.70
3850;DHT22;1940;51.052;13.678;2022-10-16T15:37:56;22.30;78.10
3850;DHT22;1940;51.052;13.678;2022-10-16T15:40:22;22.20;78.40
3850;DHT22;1940;51.052;13.678;2022-10-16T15:42:48;22.10;78.70
3850;DHT22;1940;51.052;13.678;2022-10-16T15:45:15;22.00;78.90
3850;DHT22;1940;51.052;13.678;2022-10-16T15:47:41;21.90;79.40
3850;DHT22;1940;51.052;13.678;2022-10-16T15:50:10;21.80;79.60
3850;DHT22;1940;51.052;13.678;2022-10-16T15:52:36;21.60;80.10
3850;DHT22;1940;51.052;13.678;2022-10-16T15:55:02;21.50;80.30
3850;DHT22;1940;51.052;13.678;2022-10-16T15:57:29;21.40;80.70
3850;DHT22;1940;51.052;13.678;2022-10-16T15:59:54;21.40;80.90
3850;DHT22;1940;51.052;13.678;2022-10-16T16:02:20;21.30;81.20
3850;DHT22;1940;51.052;13.678;2022-10-16T16:04:46;21.20;81.20
3850;DHT22;1940;51.052;13.678;2022-10-16T16:07:11;21.10;81.70
3850;DHT22;1940;51.052;13.678;2022-10-16T16:09:37;21.00;82.00
3850;DHT22;1940;51.052;13.678;2022-10-16T16:12:03;20.80;82.70
3850;DHT22;1940;51.052;13.678;2022-10-16T16:14:29;20.70;82.90
3850;DHT22;1940;51.052;13.678;2022-10-16T16:16:55;20.50;83.30
3850;DHT22;1940;51.052;13.678;2022-10-16T16:19:21;20.40;84.30
3850;DHT22;1940;51.052;13.678;2022-10-16T16:21:48;20.30;83.10
3850;DHT22;1940;51.052;13.678;2022-10-16T16:24:13;20.20;84.20
3850;DHT22;1940;51.052;13.678;2022-10-16T16:26:39;20.20;84.50
3850;DHT22;1940;51.052;13.678;2022-10-16T16:29:10;20.10;84.70
3850;DHT22;1940;51.052;13.678;2022-10-16T16:31:37;20.00;84.90
3850;DHT22;1940;51.052;13.678;2022-10-16T16:34:03;19.90;85.30
3850;DHT22;1940;51.052;13.678;2022-10-16T16:36:29;19.90;85.60
3850;DHT22;1940;51.052;13.678;2022-10-16T16:38:54;19.80;85.90
3850;DHT22;1940;51.052;13.678;2022-10-16T16:41:24;19.70;86.20
3850;DHT22;1940;51.052;13.678;2022-10-16T16:43:51;19.70;86.00
3850;DHT22;1940;51.052;13.678;2022-10-16T16:46:17;19.70;86.00
3850;DHT22;1940;51.052;13.678;2022-10-16T16:48:44;19.60;86.00
3850;DHT22;1940;51.052;13.678;2022-10-16T16:51:14;19.60;86.20
3850;DHT22;1940;51.052;13.678;2022-10-16T16:53:42;19.50;86.40
3850;DHT22;1940;51.052;13.678;2022-10-16T16:56:09;19.50;86.30
3850;DHT22;1940;51.052;13.678;2022-10-16T16:58:35;19.40;86.50
3850;DHT22;1940;51.052;13.678;2022-10-16T17:01:01;19.30;86.60
3850;DHT22;1940;51.052;13.678;2022-10-16T17:03:34;19.20;86.90
3850;DHT22;1940;51.052;13.678;2022-10-16T17:06:06;19.10;87.20
3850;DHT22;1940;51.052;13.678;2022-10-16T17:08:34;19.10;87.30
3850;DHT22;1940;51.052;13.678;2022-10-16T17:11:00;19.00;87.40
3850;DHT22;1940;51.052;13.678;2022-10-16T17:13:27;18.90;87.60
3850;DHT22;1940;51.052;13.678;2022-10-16T17:15:54;18.80;87.60
3850;DHT22;1940;51.052;13.678;2022-10-16T17:18:22;18.80;87.70
3850;DHT22;1940;51.052;13.678;2022-10-16T17:20:49;18.70;87.70
3850;DHT22;1940;51.052;13.678;2022-10-16T17:23:15;18.60;87.50
3850;DHT22;1940;51.052;13.678;2022-10-16T17:25:42;18.60;87.50
3850;DHT22;1940;51.052;13.678;2022-10-16T17:28:08;18.60;87.50
3850;DHT22;1940;51.052;13.678;2022-10-16T17:30:36;18.50;87.50
3850;DHT22;1940;51.052;13.678;2022-10-16T17:33:03;18.50;87.30
3850;DHT22;1940;51.052;13.678;2022-10-16T17:35:35;18.50;87.20
3850;DHT22;1940;51.052;13.678;2022-10-16T17:38:00;18.40;87.20
3850;DHT22;1940;51.052;13.678;2022-10-16T17:40:34;18.30;87.40
3850;DHT22;1940;51.052;13.678;2022-10-16T17:43:00;18.30;87.60
3850;DHT22;1940;51.052;13.678;2022-10-16T17:45:26;18.20;87.80
3850;DHT22;1940;51.052;13.678;2022-10-16T17:47:52;18.10;88.20
3850;DHT22;1940;51.052;13.678;2022-10-16T17:50:18;18.00;88.40
3850;DHT22;1940;51.052;13.678;2022-10-16T17:52:44;17.90;88.60
3850;DHT22;1940;51.052;13.678;2022-10-16T17:55:10;17.80;89.00
3850;DHT22;1940;51.052;13.678;2022-10-16T17:57:36;17.70;89.20
3850;DHT22;1940;51.052;13.678;2022-10-16T18:00:02;17.70;89.40
3850;DHT22;1940;51.052;13.678;2022-10-16T18:02:28;17.60;89.60
3850;DHT22;1940;51.052;13.678;2022-10-16T18:04:53;17.50;89.80